In Rescue
 
Open Full Screen Window  High Contrast Mode
October 29, 2020 10:38 PM CDT
Weather Information
Wind Direction
  ---
Wind Speed
  00 kt (0 mph)
Wind Gust
  00 kt (0 mph)
Altimeter
30.11 in
Visibility
10 SM
Temperature
-07° C
19° F
Dewpoint
-08° C
18° F
Humidity
93%
1hr Rain Fall
00.00 in.
24hr Rain Fall
00.00 in.
Sky Condition
Overcast @ 5,500 ft
VFR

METAR KEVM 300338Z AUTO 00000KT 10SM OVC055 M07/M08 A3011 RMK AO2 T10701085

FAA Disclaimer: The data displayed is for advisory purposes only and is not to be used for flight planning or operations.